createdAt,value
2017-06-28T00:00:21.282Z,0
2017-06-28T00:01:01.739Z,0
2017-06-28T00:01:42.195Z,0
2017-06-28T00:02:22.656Z,0
2017-06-28T00:03:03.106Z,0
2017-06-28T00:03:43.569Z,0
2017-06-28T00:04:24.024Z,0
2017-06-28T00:05:04.501Z,0
2017-06-28T00:05:44.958Z,0
2017-06-28T00:06:25.418Z,0
2017-06-28T00:07:05.874Z,0
2017-06-28T00:07:46.331Z,0
2017-06-28T00:08:26.785Z,0
2017-06-28T00:09:07.240Z,0
2017-06-28T00:09:47.695Z,0
2017-06-28T00:10:28.150Z,0
2017-06-28T00:11:08.609Z,0
2017-06-28T00:11:49.075Z,0
2017-06-28T00:12:29.532Z,0
2017-06-28T00:13:09.994Z,0
2017-06-28T00:13:50.450Z,0
2017-06-28T00:14:30.914Z,0
2017-06-28T00:15:11.377Z,0
2017-06-28T00:15:51.824Z,0
2017-06-28T00:16:32.432Z,0
2017-06-28T00:17:12.890Z,0
2017-06-28T00:17:53.345Z,0
2017-06-28T00:18:33.803Z,0
2017-06-28T00:19:14.280Z,0
2017-06-28T00:19:54.823Z,0
2017-06-28T00:20:35.275Z,0
2017-06-28T00:21:15.734Z,0
2017-06-28T00:21:56.187Z,0
2017-06-28T00:22:36.644Z,0
2017-06-28T00:23:17.104Z,0
2017-06-28T00:23:57.542Z,0
2017-06-28T00:24:37.999Z,0
2017-06-28T00:25:18.452Z,0
2017-06-28T00:25:58.905Z,0
2017-06-28T00:26:39.380Z,0
2017-06-28T00:27:19.840Z,0
2017-06-28T00:28:00.300Z,0
2017-06-28T00:28:40.757Z,0
2017-06-28T00:31:14.082Z,0
2017-06-28T00:31:54.535Z,0
2017-06-28T00:32:34.990Z,0
2017-06-28T00:33:15.458Z,0
2017-06-28T00:33:55.916Z,0
2017-06-28T00:34:36.374Z,0
2017-06-28T00:35:16.831Z,0
2017-06-28T00:35:57.290Z,0
2017-06-28T00:36:37.751Z,0
2017-06-28T00:37:18.206Z,0
2017-06-28T00:37:58.662Z,0
2017-06-28T00:38:39.118Z,0
2017-06-28T00:39:19.567Z,0
2017-06-28T00:40:00.045Z,0
2017-06-28T00:40:40.500Z,0
2017-06-28T00:41:20.955Z,0
2017-06-28T00:42:01.418Z,0
2017-06-28T00:42:41.868Z,0
2017-06-28T00:43:22.312Z,0
2017-06-28T00:44:02.763Z,0
2017-06-28T00:44:43.217Z,0
2017-06-28T00:45:23.685Z,0
2017-06-28T00:46:04.166Z,0
2017-06-28T00:46:44.625Z,0
2017-06-28T00:49:22.760Z,0
2017-06-28T00:50:03.217Z,0
2017-06-28T00:50:43.676Z,0
2017-06-28T00:51:24.160Z,0
2017-06-28T00:52:04.613Z,0
2017-06-28T00:52:45.070Z,0
2017-06-28T00:53:25.528Z,0
2017-06-28T00:54:05.997Z,0
2017-06-28T00:54:46.454Z,0
2017-06-28T00:55:26.911Z,0
2017-06-28T00:56:07.373Z,0
2017-06-28T00:56:47.832Z,0
2017-06-28T00:57:28.288Z,0
2017-06-28T00:58:08.733Z,0
2017-06-28T00:58:49.189Z,0
2017-06-28T00:59:29.654Z,0
2017-06-28T01:00:10.112Z,0
2017-06-28T01:00:50.570Z,0
2017-06-28T01:01:31.029Z,0
2017-06-28T01:02:11.486Z,0
2017-06-28T01:02:51.941Z,0
2017-06-28T01:03:32.403Z,0
2017-06-28T01:04:12.849Z,0
2017-06-28T01:04:53.310Z,0
2017-06-28T01:05:33.779Z,0
2017-06-28T01:06:14.236Z,0
2017-06-28T01:06:54.723Z,0
2017-06-28T01:07:35.156Z,0
2017-06-28T01:08:15.613Z,0
2017-06-28T01:08:56.069Z,0
2017-06-28T01:09:36.529Z,0
2017-06-28T01:10:16.988Z,0
2017-06-28T01:10:57.456Z,0
2017-06-28T01:11:37.911Z,0
2017-06-28T01:12:18.375Z,0
2017-06-28T01:12:58.832Z,0
2017-06-28T01:13:39.291Z,0
2017-06-28T01:14:19.732Z,0
2017-06-28T01:15:00.191Z,0
2017-06-28T01:15:40.649Z,0
2017-06-28T01:16:21.100Z,0
2017-06-28T01:17:01.542Z,0
2017-06-28T01:17:42.001Z,0
2017-06-28T01:18:22.453Z,0
2017-06-28T01:19:02.910Z,0
2017-06-28T01:19:43.370Z,0
2017-06-28T01:20:23.835Z,0
2017-06-28T01:21:04.300Z,0
2017-06-28T01:21:44.756Z,0
2017-06-28T01:22:25.218Z,0
2017-06-28T01:23:05.677Z,0
2017-06-28T01:23:46.143Z,0
2017-06-28T01:24:26.601Z,0
2017-06-28T01:25:07.081Z,0
2017-06-28T01:25:47.540Z,0
2017-06-28T01:26:27.996Z,0
2017-06-28T01:27:08.457Z,0
2017-06-28T01:27:48.911Z,0
2017-06-28T01:28:29.411Z,0
2017-06-28T01:29:09.871Z,0
2017-06-28T01:29:50.337Z,0
2017-06-28T01:30:30.790Z,0
2017-06-28T01:31:11.255Z,0
2017-06-28T01:31:51.703Z,0
2017-06-28T01:32:32.174Z,0
2017-06-28T01:33:12.633Z,0
2017-06-28T01:33:53.094Z,0
2017-06-28T01:34:33.566Z,0
2017-06-28T01:35:14.022Z,0
2017-06-28T01:35:54.482Z,0
2017-06-28T01:36:34.942Z,0
2017-06-28T01:37:15.399Z,0
2017-06-28T01:37:55.871Z,0
2017-06-28T01:38:36.318Z,0
2017-06-28T01:39:16.779Z,0
2017-06-28T01:39:57.240Z,0
2017-06-28T01:40:37.696Z,0
2017-06-28T01:41:18.153Z,0
2017-06-28T01:41:58.613Z,0
2017-06-28T01:42:39.073Z,0
2017-06-28T01:43:19.533Z,0
2017-06-28T01:43:59.996Z,0
2017-06-28T01:44:40.451Z,0
2017-06-28T01:45:20.898Z,0
2017-06-28T01:46:01.358Z,0
2017-06-28T01:46:41.816Z,0
2017-06-28T01:47:22.283Z,0
2017-06-28T01:48:02.731Z,0
2017-06-28T01:48:43.190Z,0
2017-06-28T01:49:23.646Z,0
2017-06-28T01:50:04.127Z,0
2017-06-28T01:50:44.588Z,0
2017-06-28T01:51:25.049Z,0
2017-06-28T01:52:05.508Z,0
2017-06-28T01:52:45.970Z,0
2017-06-28T01:53:26.427Z,0
2017-06-28T01:54:06.884Z,0
2017-06-28T01:54:47.358Z,0
2017-06-28T01:55:27.814Z,0
2017-06-28T01:56:08.274Z,0
2017-06-28T01:56:48.731Z,0
2017-06-28T01:57:29.195Z,0
2017-06-28T01:58:09.651Z,0
2017-06-28T01:58:50.097Z,0
2017-06-28T01:59:30.549Z,0
2017-06-28T02:00:11.006Z,0
2017-06-28T02:00:51.461Z,0
2017-06-28T02:01:31.921Z,0
2017-06-28T02:02:12.391Z,0
2017-06-28T02:02:52.850Z,0
2017-06-28T02:03:33.309Z,0
2017-06-28T02:04:13.765Z,0
2017-06-28T02:04:54.221Z,0
2017-06-28T02:05:34.686Z,0
2017-06-28T02:06:15.137Z,0
2017-06-28T02:06:55.595Z,0
2017-06-28T02:07:36.045Z,0
2017-06-28T02:08:16.506Z,0
2017-06-28T02:08:56.966Z,0
2017-06-28T02:09:37.423Z,0
2017-06-28T02:10:17.874Z,0
2017-06-28T02:10:58.337Z,0
2017-06-28T02:11:38.799Z,0
2017-06-28T02:12:19.259Z,0
2017-06-28T02:12:59.717Z,0
2017-06-28T02:13:40.178Z,0
2017-06-28T02:14:20.629Z,0
2017-06-28T02:15:01.093Z,0
2017-06-28T02:15:41.551Z,0
2017-06-28T02:16:22.000Z,0
2017-06-28T02:17:02.455Z,0
2017-06-28T02:17:42.909Z,0
2017-06-28T02:18:23.351Z,0
2017-06-28T02:19:03.804Z,0
2017-06-28T02:19:44.264Z,0
2017-06-28T02:20:24.721Z,0
2017-06-28T02:21:05.178Z,0
2017-06-28T02:21:45.643Z,0
2017-06-28T02:22:26.097Z,0
2017-06-28T02:23:06.550Z,0
2017-06-28T02:23:47.002Z,0
2017-06-28T02:24:27.456Z,0
2017-06-28T02:25:07.898Z,0
2017-06-28T02:25:48.366Z,0
2017-06-28T02:26:28.821Z,0
2017-06-28T02:27:09.261Z,0
2017-06-28T02:27:49.725Z,0
2017-06-28T02:28:30.175Z,0
2017-06-28T02:29:10.634Z,0
2017-06-28T02:29:51.088Z,0
2017-06-28T02:30:31.547Z,0
2017-06-28T02:31:12.006Z,0
2017-06-28T02:31:52.470Z,0
2017-06-28T02:32:32.927Z,0
2017-06-28T02:33:13.383Z,0
2017-06-28T02:33:53.846Z,0
2017-06-28T02:34:34.310Z,0
2017-06-28T02:35:14.761Z,0
2017-06-28T02:35:55.222Z,0
2017-06-28T02:36:35.690Z,0
2017-06-28T02:37:16.143Z,0
2017-06-28T02:37:56.605Z,0
2017-06-28T02:38:37.063Z,0
2017-06-28T02:39:17.525Z,0
2017-06-28T02:39:57.978Z,0
2017-06-28T02:40:38.438Z,0
2017-06-28T02:41:18.900Z,0
2017-06-28T02:41:59.379Z,0
2017-06-28T02:42:39.822Z,0
2017-06-28T02:43:20.278Z,0
2017-06-28T02:44:00.733Z,0
2017-06-28T02:44:41.195Z,0
2017-06-28T02:45:21.654Z,0
2017-06-28T02:46:02.119Z,0
2017-06-28T02:46:42.573Z,0
2017-06-28T02:47:23.033Z,0
2017-06-28T02:48:03.491Z,0
2017-06-28T02:48:43.951Z,0
2017-06-28T02:49:24.433Z,0
2017-06-28T02:50:04.892Z,0
2017-06-28T02:50:45.349Z,0
2017-06-28T02:51:25.810Z,0
2017-06-28T02:52:06.259Z,0
2017-06-28T02:52:46.714Z,0
2017-06-28T02:53:27.172Z,0
2017-06-28T02:54:07.634Z,0
2017-06-28T02:54:48.094Z,0
2017-06-28T02:55:28.571Z,0
2017-06-28T02:56:09.025Z,0
2017-06-28T02:56:49.477Z,0
2017-06-28T02:57:29.922Z,0
2017-06-28T02:58:10.384Z,0
2017-06-28T02:58:50.844Z,0
2017-06-28T02:59:31.287Z,0
2017-06-28T03:00:11.740Z,0
2017-06-28T03:00:52.203Z,0
2017-06-28T03:01:32.666Z,0
2017-06-28T03:02:13.131Z,0
2017-06-28T03:02:53.591Z,0
2017-06-28T03:03:34.035Z,0
2017-06-28T03:04:14.519Z,0
2017-06-28T03:04:54.969Z,0
2017-06-28T03:05:35.426Z,0
2017-06-28T03:06:15.875Z,0
2017-06-28T03:06:56.322Z,0
2017-06-28T03:07:36.785Z,0
2017-06-28T03:08:17.242Z,0
2017-06-28T03:08:57.681Z,0
2017-06-28T03:09:38.147Z,0
2017-06-28T03:10:18.595Z,0
2017-06-28T03:10:59.055Z,0
2017-06-28T03:11:39.524Z,0
2017-06-28T03:12:19.983Z,0
2017-06-28T03:13:00.451Z,0
2017-06-28T03:13:40.913Z,0
2017-06-28T03:14:21.745Z,0
2017-06-28T03:15:02.204Z,0
2017-06-28T03:15:42.646Z,0
2017-06-28T03:16:23.098Z,0
2017-06-28T03:17:03.559Z,0
2017-06-28T03:17:44.012Z,0
2017-06-28T03:18:24.487Z,0
2017-06-28T03:19:04.943Z,0
2017-06-28T03:19:45.411Z,0
2017-06-28T03:20:25.880Z,0
2017-06-28T03:21:06.321Z,0
2017-06-28T03:21:46.778Z,0
2017-06-28T03:22:27.232Z,0
2017-06-28T03:23:07.682Z,0
2017-06-28T03:23:48.141Z,0
2017-06-28T03:24:28.601Z,0
2017-06-28T03:25:09.068Z,0
2017-06-28T03:25:49.492Z,0
2017-06-28T03:26:29.937Z,0
2017-06-28T03:27:10.387Z,0
2017-06-28T03:27:50.843Z,0
2017-06-28T03:28:31.312Z,0
2017-06-28T03:29:11.767Z,0
2017-06-28T03:29:52.221Z,0
2017-06-28T03:30:32.681Z,0
2017-06-28T03:31:13.139Z,0
2017-06-28T03:31:53.601Z,0
2017-06-28T03:32:34.046Z,0
2017-06-28T03:33:14.564Z,0
2017-06-28T03:33:55.025Z,0
2017-06-28T03:34:35.480Z,0
2017-06-28T03:35:15.934Z,0
2017-06-28T03:35:56.391Z,0
2017-06-28T03:36:36.848Z,0
2017-06-28T03:37:17.308Z,0
2017-06-28T03:37:57.758Z,0
2017-06-28T03:38:38.211Z,0
2017-06-28T03:39:18.676Z,0
2017-06-28T03:39:59.132Z,0
2017-06-28T03:40:39.596Z,0
2017-06-28T03:41:20.057Z,0
2017-06-28T03:42:00.513Z,0
2017-06-28T03:42:40.973Z,0
2017-06-28T03:43:21.464Z,0
2017-06-28T03:44:01.928Z,0
2017-06-28T03:44:42.383Z,0
2017-06-28T03:45:22.837Z,0
2017-06-28T03:46:03.305Z,0
2017-06-28T03:46:43.759Z,0
2017-06-28T03:47:24.218Z,0
2017-06-28T03:48:04.680Z,0
2017-06-28T03:48:45.131Z,0
2017-06-28T03:49:25.651Z,0
2017-06-28T03:50:06.114Z,0
2017-06-28T03:50:46.568Z,0
2017-06-28T03:51:27.025Z,0
2017-06-28T03:52:07.487Z,0
2017-06-28T03:52:48.007Z,0
2017-06-28T03:53:28.475Z,0
2017-06-28T03:54:08.946Z,0
2017-06-28T03:54:49.402Z,0
2017-06-28T03:55:29.867Z,0
2017-06-28T03:56:10.327Z,0
2017-06-28T03:56:50.785Z,0
2017-06-28T03:57:31.244Z,0
2017-06-28T03:58:11.713Z,0
2017-06-28T03:58:52.164Z,0
2017-06-28T03:59:32.623Z,0
2017-06-28T04:00:13.074Z,0
2017-06-28T04:00:53.537Z,0
2017-06-28T04:01:33.994Z,0
2017-06-28T04:02:14.464Z,0
2017-06-28T04:02:54.928Z,0
2017-06-28T04:03:35.384Z,0
2017-06-28T04:04:15.853Z,0
2017-06-28T04:04:56.301Z,0
2017-06-28T04:05:36.759Z,0
2017-06-28T04:06:17.217Z,0
2017-06-28T04:06:57.679Z,0
2017-06-28T04:07:38.137Z,0
2017-06-28T04:08:18.593Z,0
2017-06-28T04:08:59.059Z,0
2017-06-28T04:09:39.518Z,0
2017-06-28T04:10:19.976Z,0
2017-06-28T04:11:00.435Z,0
2017-06-28T04:11:40.897Z,0
2017-06-28T04:12:21.355Z,0
2017-06-28T04:13:01.835Z,0
2017-06-28T04:13:42.290Z,0
2017-06-28T04:14:22.756Z,0
2017-06-28T04:15:03.218Z,0
2017-06-28T04:15:43.675Z,0
2017-06-28T04:16:24.136Z,0
2017-06-28T04:17:04.596Z,0
2017-06-28T04:17:45.049Z,0
2017-06-28T04:18:25.513Z,0
2017-06-28T04:19:05.971Z,0
2017-06-28T04:19:46.431Z,0
2017-06-28T04:20:26.891Z,0
2017-06-28T04:21:07.348Z,0
2017-06-28T04:21:47.811Z,0
2017-06-28T04:22:28.275Z,0
2017-06-28T04:23:08.727Z,0
2017-06-28T04:23:49.190Z,0
2017-06-28T04:24:29.696Z,0
2017-06-28T04:25:10.161Z,0
2017-06-28T04:25:50.619Z,0
2017-06-28T04:26:31.081Z,0
2017-06-28T04:27:11.549Z,0
2017-06-28T04:27:52.006Z,0
2017-06-28T04:28:32.467Z,0
2017-06-28T04:29:12.926Z,0
2017-06-28T04:29:53.385Z,0
2017-06-28T04:30:33.847Z,0
2017-06-28T04:31:14.302Z,0
2017-06-28T04:31:54.760Z,0
2017-06-28T04:32:35.216Z,0
2017-06-28T04:33:15.675Z,0
2017-06-28T04:33:56.136Z,0
2017-06-28T04:34:36.599Z,0
2017-06-28T04:35:17.063Z,0
2017-06-28T04:35:57.520Z,0
2017-06-28T04:36:37.981Z,0
2017-06-28T04:37:18.447Z,0
2017-06-28T04:37:58.909Z,0
2017-06-28T04:38:39.377Z,0
2017-06-28T04:39:19.834Z,0
2017-06-28T04:40:00.295Z,0
2017-06-28T04:40:40.752Z,0
2017-06-28T04:41:21.210Z,0
2017-06-28T04:42:01.667Z,0
2017-06-28T04:42:42.132Z,5
2017-06-28T04:43:22.594Z,5
2017-06-28T04:44:03.051Z,5
2017-06-28T04:44:43.526Z,5
2017-06-28T04:45:23.978Z,5
2017-06-28T04:46:04.436Z,5
2017-06-28T04:48:17.347Z,5
2017-06-28T04:48:57.809Z,5
2017-06-28T04:49:38.264Z,5
2017-06-28T04:50:18.746Z,5
2017-06-28T04:50:59.164Z,5
2017-06-28T04:51:39.622Z,5
2017-06-28T04:52:20.080Z,5
2017-06-28T04:53:00.540Z,5
2017-06-28T04:53:41.035Z,5
2017-06-28T04:54:21.463Z,5
2017-06-28T04:55:01.926Z,5
2017-06-28T04:55:42.379Z,5
2017-06-28T04:56:22.837Z,5
2017-06-28T04:57:03.299Z,5
2017-06-28T04:57:43.746Z,5
2017-06-28T04:58:24.195Z,5
2017-06-28T04:59:04.653Z,5
2017-06-28T04:59:45.111Z,5
2017-06-28T05:00:25.575Z,5
2017-06-28T05:01:06.033Z,5
2017-06-28T05:01:46.489Z,5
2017-06-28T05:02:26.946Z,5
2017-06-28T05:03:07.405Z,5
2017-06-28T05:03:47.859Z,5
2017-06-28T05:04:28.318Z,5
2017-06-28T05:05:08.772Z,5
2017-06-28T05:05:49.230Z,5
2017-06-28T05:06:29.705Z,5
2017-06-28T05:07:10.159Z,5
2017-06-28T05:07:50.618Z,5
2017-06-28T05:08:31.075Z,5
2017-06-28T05:09:11.525Z,5
2017-06-28T05:09:51.981Z,5
2017-06-28T05:10:32.441Z,5
2017-06-28T05:11:12.893Z,5
2017-06-28T05:11:53.362Z,5
2017-06-28T05:12:33.823Z,5
2017-06-28T05:13:14.281Z,5
2017-06-28T05:13:54.741Z,5
2017-06-28T05:14:35.197Z,5
2017-06-28T05:15:15.657Z,5
2017-06-28T05:15:56.109Z,5
2017-06-28T05:16:36.573Z,5
2017-06-28T05:17:17.032Z,5
2017-06-28T05:17:57.496Z,5
2017-06-28T05:18:37.959Z,5
2017-06-28T05:19:18.421Z,5
2017-06-28T05:19:58.880Z,5
2017-06-28T05:20:39.339Z,5
2017-06-28T05:21:19.805Z,5
2017-06-28T05:22:00.262Z,5
2017-06-28T05:22:40.722Z,5
2017-06-28T05:23:21.182Z,5
2017-06-28T05:24:01.638Z,5
2017-06-28T05:24:42.098Z,5
2017-06-28T05:25:22.553Z,5
2017-06-28T05:26:03.015Z,5
2017-06-28T05:26:43.472Z,5
2017-06-28T05:27:23.930Z,5
2017-06-28T05:28:04.478Z,0
2017-06-28T05:28:44.898Z,0
2017-06-28T05:29:25.349Z,0
2017-06-28T05:30:05.813Z,0
2017-06-28T05:30:46.267Z,0
2017-06-28T05:31:26.726Z,0
2017-06-28T05:32:07.190Z,0
2017-06-28T05:32:47.652Z,0
2017-06-28T05:33:28.110Z,0
2017-06-28T05:34:08.569Z,0
2017-06-28T05:34:49.019Z,0
2017-06-28T05:35:29.485Z,0
2017-06-28T05:36:09.945Z,0
2017-06-28T05:36:50.401Z,0
2017-06-28T05:37:30.849Z,0
2017-06-28T05:38:11.318Z,0
2017-06-28T05:38:51.811Z,0
2017-06-28T05:39:32.273Z,0
2017-06-28T05:40:12.743Z,0
2017-06-28T05:40:53.203Z,0
2017-06-28T05:41:33.663Z,0
2017-06-28T05:42:14.117Z,0
2017-06-28T05:42:54.569Z,0
2017-06-28T05:43:35.050Z,0
2017-06-28T05:44:15.498Z,0
2017-06-28T05:44:55.955Z,0
2017-06-28T05:45:36.423Z,0
2017-06-28T05:46:16.882Z,0
2017-06-28T05:46:57.334Z,0
2017-06-28T05:47:37.796Z,0
2017-06-28T05:48:18.252Z,0
2017-06-28T05:48:58.755Z,0
2017-06-28T05:49:39.212Z,0
2017-06-28T05:50:19.671Z,0
2017-06-28T05:51:00.131Z,0
2017-06-28T05:51:40.593Z,0
2017-06-28T05:52:21.046Z,0
2017-06-28T05:53:01.499Z,0
2017-06-28T05:53:41.956Z,5
2017-06-28T05:54:22.415Z,5
2017-06-28T05:55:02.880Z,5
2017-06-28T05:55:43.331Z,5
2017-06-28T05:56:23.787Z,5
2017-06-28T05:57:04.246Z,5
2017-06-28T05:57:44.717Z,5
2017-06-28T05:58:25.165Z,5
2017-06-28T05:59:05.626Z,5
2017-06-28T05:59:46.086Z,5
2017-06-28T06:00:26.546Z,5
2017-06-28T06:01:07.006Z,5
2017-06-28T06:01:47.464Z,5
2017-06-28T06:02:27.916Z,5
2017-06-28T06:03:08.701Z,5
2017-06-28T06:03:49.156Z,5
2017-06-28T06:04:29.612Z,5
2017-06-28T06:05:10.074Z,5
2017-06-28T06:05:50.549Z,5
2017-06-28T06:06:31.011Z,5
2017-06-28T06:07:11.448Z,5
2017-06-28T06:07:51.907Z,5
2017-06-28T06:08:32.369Z,5
2017-06-28T06:09:12.827Z,5
2017-06-28T06:09:53.284Z,5
2017-06-28T06:10:33.740Z,5
2017-06-28T06:11:14.203Z,5
2017-06-28T06:11:54.669Z,5
2017-06-28T06:12:35.113Z,5
2017-06-28T06:13:15.573Z,5
2017-06-28T06:13:56.029Z,5
2017-06-28T06:14:36.496Z,5
2017-06-28T06:15:16.956Z,5
2017-06-28T06:15:57.416Z,5
2017-06-28T06:16:37.871Z,5
2017-06-28T06:17:18.326Z,5
2017-06-28T06:17:58.784Z,5
2017-06-28T06:18:39.241Z,5
2017-06-28T06:19:19.695Z,5
2017-06-28T06:20:00.158Z,5
2017-06-28T06:20:40.620Z,5
2017-06-28T06:21:21.062Z,5
2017-06-28T06:22:01.527Z,5
2017-06-28T06:22:41.984Z,5
2017-06-28T06:23:22.461Z,5
2017-06-28T06:24:02.921Z,5
2017-06-28T06:24:43.372Z,5
2017-06-28T06:25:23.837Z,5
2017-06-28T06:26:04.291Z,5
2017-06-28T06:26:44.749Z,5
2017-06-28T06:27:25.210Z,0
2017-06-28T06:28:05.693Z,0
2017-06-28T06:28:46.127Z,0
2017-06-28T06:29:26.597Z,0
2017-06-28T06:30:07.051Z,0
2017-06-28T06:30:47.536Z,0
2017-06-28T06:31:27.974Z,0
2017-06-28T06:32:08.442Z,0
2017-06-28T06:32:48.894Z,0
2017-06-28T06:33:29.354Z,5
2017-06-28T06:34:09.812Z,5
2017-06-28T06:34:50.270Z,5
2017-06-28T06:35:30.729Z,5
2017-06-28T06:36:11.187Z,5
2017-06-28T06:36:51.641Z,5
2017-06-28T06:37:32.093Z,5
2017-06-28T06:38:12.546Z,5
2017-06-28T06:38:53.003Z,5
2017-06-28T06:39:33.465Z,5
2017-06-28T06:40:13.921Z,5
2017-06-28T06:40:54.386Z,5
2017-06-28T06:41:34.842Z,5
2017-06-28T06:42:15.293Z,5
2017-06-28T06:42:55.749Z,5
2017-06-28T06:43:36.205Z,5
2017-06-28T06:44:16.665Z,5
2017-06-28T06:44:57.122Z,5
2017-06-28T06:45:37.595Z,5
2017-06-28T06:46:18.052Z,5
2017-06-28T06:46:58.513Z,5
2017-06-28T06:47:38.976Z,5
2017-06-28T06:48:19.437Z,5
2017-06-28T06:48:59.895Z,5
2017-06-28T06:49:40.355Z,5
2017-06-28T06:50:20.820Z,5
2017-06-28T06:51:01.279Z,5
2017-06-28T06:51:41.737Z,5
2017-06-28T06:52:22.195Z,5
2017-06-28T06:53:02.650Z,5
2017-06-28T06:53:43.110Z,5
2017-06-28T06:54:23.572Z,5
2017-06-28T06:55:04.033Z,5
2017-06-28T06:55:44.485Z,5
2017-06-28T06:56:24.943Z,5
2017-06-28T06:57:05.397Z,5
2017-06-28T06:57:45.847Z,5
2017-06-28T06:58:26.304Z,5
2017-06-28T06:59:06.768Z,5
2017-06-28T06:59:47.221Z,5
2017-06-28T07:00:27.669Z,5
2017-06-28T07:01:08.127Z,5
2017-06-28T07:01:48.590Z,5
2017-06-28T07:02:29.048Z,5
2017-06-28T07:03:09.503Z,5
2017-06-28T07:03:49.965Z,5
2017-06-28T07:04:30.425Z,5
2017-06-28T07:05:10.883Z,5
2017-06-28T07:05:51.339Z,5
2017-06-28T07:06:31.800Z,5
2017-06-28T07:07:12.255Z,5
2017-06-28T07:07:52.708Z,5
2017-06-28T07:08:33.174Z,10
2017-06-28T07:09:13.635Z,10
2017-06-28T07:09:54.100Z,10
2017-06-28T07:10:34.560Z,10
2017-06-28T07:11:15.021Z,10
2017-06-28T07:11:55.466Z,10
2017-06-28T07:12:35.928Z,10
2017-06-28T07:13:16.367Z,10
2017-06-28T07:13:56.831Z,10
2017-06-28T07:14:37.288Z,10
2017-06-28T07:15:17.744Z,10
2017-06-28T07:15:58.201Z,10
2017-06-28T07:16:38.671Z,10
2017-06-28T07:17:19.130Z,10
2017-06-28T07:17:59.584Z,10
2017-06-28T07:18:40.041Z,10
2017-06-28T07:19:20.501Z,10
2017-06-28T07:20:00.952Z,10
2017-06-28T07:20:41.408Z,10
2017-06-28T07:21:21.861Z,10
2017-06-28T07:22:02.325Z,10
2017-06-28T07:22:42.785Z,5
2017-06-28T07:23:23.252Z,5
2017-06-28T07:24:03.712Z,5
2017-06-28T07:24:44.168Z,5
2017-06-28T07:25:24.626Z,5
2017-06-28T07:26:05.087Z,5
2017-06-28T07:26:45.543Z,5
2017-06-28T07:27:25.998Z,5
2017-06-28T07:28:06.447Z,5
2017-06-28T07:28:46.905Z,5
2017-06-28T07:29:27.370Z,5
2017-06-28T07:30:07.828Z,5
2017-06-28T07:30:48.286Z,5
2017-06-28T07:31:28.741Z,5
2017-06-28T07:32:09.197Z,5
2017-06-28T07:32:49.651Z,5
2017-06-28T07:33:30.113Z,5
2017-06-28T07:34:10.578Z,5
2017-06-28T07:34:51.030Z,5
2017-06-28T07:35:31.665Z,5
2017-06-28T07:36:12.127Z,5
2017-06-28T07:36:52.583Z,5
2017-06-28T07:37:33.043Z,5
2017-06-28T07:38:13.501Z,5
2017-06-28T07:38:53.958Z,5
2017-06-28T07:39:34.420Z,5
2017-06-28T07:40:14.886Z,0
2017-06-28T07:40:55.347Z,0
2017-06-28T07:41:35.813Z,0
2017-06-28T07:42:16.267Z,5
2017-06-28T07:42:56.728Z,5
2017-06-28T07:43:37.188Z,5
2017-06-28T07:44:17.647Z,5
2017-06-28T07:44:58.104Z,5
2017-06-28T07:45:38.563Z,5
2017-06-28T07:46:19.020Z,5
2017-06-28T07:46:59.482Z,5
2017-06-28T07:47:39.945Z,5
2017-06-28T07:48:20.398Z,5
2017-06-28T07:49:00.862Z,5
2017-06-28T07:49:41.334Z,5
2017-06-28T07:50:21.802Z,5
2017-06-28T07:51:02.262Z,5
2017-06-28T07:51:42.721Z,5
2017-06-28T07:52:23.183Z,0
2017-06-28T07:53:03.644Z,0
2017-06-28T07:53:44.113Z,0
2017-06-28T07:54:24.569Z,5
2017-06-28T07:55:05.028Z,5
2017-06-28T07:55:45.490Z,5
2017-06-28T07:56:25.945Z,5
2017-06-28T07:57:06.408Z,5
2017-06-28T07:57:46.862Z,5
2017-06-28T07:58:27.322Z,5
2017-06-28T07:59:07.782Z,5
2017-06-28T07:59:48.239Z,5
2017-06-28T08:00:28.699Z,5
2017-06-28T08:01:09.159Z,5
2017-06-28T08:01:49.645Z,5
2017-06-28T08:02:30.078Z,10
2017-06-28T08:03:10.539Z,10
2017-06-28T08:03:51.000Z,10
2017-06-28T08:04:31.459Z,10
2017-06-28T08:05:11.921Z,10
2017-06-28T08:05:52.379Z,10
2017-06-28T08:06:32.841Z,10
2017-06-28T08:07:13.311Z,10
2017-06-28T08:07:53.760Z,10
2017-06-28T08:08:34.221Z,10
2017-06-28T08:09:14.673Z,10
2017-06-28T08:09:55.130Z,15
2017-06-28T08:10:35.588Z,20
2017-06-28T08:11:16.050Z,20
2017-06-28T08:11:56.504Z,20
2017-06-28T08:12:36.966Z,20
2017-06-28T08:13:17.426Z,20
2017-06-28T08:13:57.889Z,20
2017-06-28T08:14:38.348Z,20
2017-06-28T08:15:18.790Z,20
2017-06-28T08:15:59.255Z,20
2017-06-28T08:16:39.717Z,20
2017-06-28T08:17:20.176Z,20
2017-06-28T08:18:00.628Z,20
2017-06-28T08:18:41.091Z,15
2017-06-28T08:19:21.548Z,15
2017-06-28T08:20:02.006Z,15
2017-06-28T08:20:42.465Z,10
2017-06-28T08:21:22.929Z,10
2017-06-28T08:22:03.384Z,10
2017-06-28T08:22:43.851Z,10
2017-06-28T08:23:24.313Z,10
2017-06-28T08:24:04.749Z,10
2017-06-28T08:24:45.223Z,10
2017-06-28T08:25:25.684Z,10
2017-06-28T08:26:06.147Z,15
2017-06-28T08:26:46.603Z,15
2017-06-28T08:27:27.064Z,15
2017-06-28T08:28:07.522Z,15
2017-06-28T08:28:47.980Z,15
2017-06-28T08:29:28.444Z,15
2017-06-28T08:30:08.903Z,15
2017-06-28T08:30:49.367Z,15
2017-06-28T08:31:29.854Z,15
2017-06-28T08:32:10.312Z,15
2017-06-28T08:32:50.769Z,15
2017-06-28T08:33:31.231Z,15
2017-06-28T08:34:11.686Z,15
2017-06-28T08:34:52.152Z,15
2017-06-28T08:35:32.613Z,15
2017-06-28T08:36:13.069Z,15
2017-06-28T08:36:53.527Z,15
2017-06-28T08:37:33.994Z,15
2017-06-28T08:38:14.452Z,15
2017-06-28T08:38:54.914Z,15
2017-06-28T08:39:35.378Z,15
2017-06-28T08:40:15.824Z,20
2017-06-28T08:40:56.287Z,20
2017-06-28T08:41:36.747Z,20
2017-06-28T08:42:17.211Z,20
2017-06-28T08:42:57.671Z,25
2017-06-28T08:43:38.131Z,30
2017-06-28T08:44:18.587Z,30
2017-06-28T08:44:59.041Z,30
2017-06-28T08:45:39.507Z,25
2017-06-28T08:46:20.016Z,30
2017-06-28T08:47:00.478Z,30
2017-06-28T08:47:40.937Z,35
2017-06-28T08:48:21.400Z,35
2017-06-28T08:49:01.855Z,30
2017-06-28T08:49:42.314Z,30
2017-06-28T08:50:22.797Z,25
2017-06-28T08:51:03.257Z,25
2017-06-28T08:51:43.731Z,25
2017-06-28T08:52:25.203Z,25
2017-06-28T08:53:05.664Z,25
2017-06-28T08:53:46.146Z,25
2017-06-28T08:54:26.590Z,20
2017-06-28T08:55:07.052Z,20
2017-06-28T08:55:47.505Z,25
2017-06-28T08:56:27.964Z,30
2017-06-28T08:57:08.418Z,30
2017-06-28T08:57:48.873Z,30
2017-06-28T08:58:29.333Z,35
2017-06-28T08:59:09.790Z,35
2017-06-28T08:59:50.247Z,35
2017-06-28T09:00:30.706Z,30
2017-06-28T09:01:11.173Z,30
2017-06-28T09:01:51.629Z,30
2017-06-28T09:02:32.093Z,30
2017-06-28T09:03:12.550Z,35
2017-06-28T09:03:53.010Z,40
2017-06-28T09:04:33.466Z,40
2017-06-28T09:05:13.926Z,45
2017-06-28T09:05:54.389Z,50
2017-06-28T09:06:34.849Z,50
2017-06-28T09:07:15.310Z,50
2017-06-28T09:07:55.767Z,50
2017-06-28T09:08:36.224Z,50
2017-06-28T09:09:16.686Z,60
2017-06-28T09:09:57.132Z,50
2017-06-28T09:10:37.597Z,60
2017-06-28T09:11:18.063Z,35
2017-06-28T09:11:58.517Z,30
2017-06-28T09:12:38.994Z,35
2017-06-28T09:13:19.454Z,35
2017-06-28T09:13:59.912Z,30
2017-06-28T09:14:40.380Z,25
2017-06-28T09:15:20.839Z,25
2017-06-28T09:16:01.295Z,20
2017-06-28T09:16:41.753Z,20
2017-06-28T09:17:22.215Z,20
2017-06-28T09:18:02.682Z,20
2017-06-28T09:18:43.145Z,20
2017-06-28T09:19:23.592Z,20
2017-06-28T09:20:04.056Z,20
2017-06-28T09:20:44.511Z,15
2017-06-28T09:21:24.970Z,15
2017-06-28T09:22:05.429Z,15
2017-06-28T09:22:45.890Z,10
2017-06-28T09:23:26.343Z,15
2017-06-28T09:24:06.811Z,15
2017-06-28T09:24:47.305Z,15
2017-06-28T09:25:27.788Z,15
2017-06-28T09:26:08.235Z,15
2017-06-28T09:26:48.698Z,15
2017-06-28T09:27:29.160Z,15
2017-06-28T09:28:09.655Z,15
2017-06-28T09:28:50.155Z,15
2017-06-28T09:29:30.590Z,15
2017-06-28T09:30:11.054Z,15
2017-06-28T09:30:51.519Z,15
2017-06-28T09:31:31.989Z,15
2017-06-28T09:32:12.447Z,15
2017-06-28T09:32:52.903Z,15
2017-06-28T09:33:33.369Z,15
2017-06-28T09:34:13.823Z,10
2017-06-28T09:34:54.278Z,10
2017-06-28T09:35:34.816Z,10
2017-06-28T09:36:15.754Z,10
2017-06-28T09:36:56.222Z,10
2017-06-28T09:37:36.681Z,15
2017-06-28T09:38:17.134Z,15
2017-06-28T09:38:57.597Z,15
2017-06-28T09:39:38.055Z,10
2017-06-28T09:40:18.516Z,10
2017-06-28T09:40:58.963Z,10
2017-06-28T09:41:39.421Z,10
2017-06-28T09:42:19.880Z,10
2017-06-28T09:43:00.337Z,10
2017-06-28T09:43:40.767Z,10
2017-06-28T09:44:21.224Z,10
2017-06-28T09:45:01.696Z,10
2017-06-28T09:45:42.170Z,10
2017-06-28T09:46:22.628Z,10
2017-06-28T09:47:03.081Z,10
2017-06-28T09:47:43.741Z,10
2017-06-28T09:48:23.990Z,10
2017-06-28T09:49:04.445Z,10
2017-06-28T09:49:44.902Z,10
2017-06-28T09:50:25.517Z,10
2017-06-28T09:51:05.976Z,5
2017-06-28T09:51:46.436Z,5
2017-06-28T09:52:26.895Z,10
2017-06-28T09:53:07.369Z,10
2017-06-28T09:53:47.809Z,10
2017-06-28T09:54:28.253Z,10
2017-06-28T09:55:08.713Z,15
2017-06-28T09:55:49.177Z,15
2017-06-28T09:56:29.637Z,15
2017-06-28T09:57:10.119Z,15
2017-06-28T09:57:50.582Z,15
2017-06-28T09:58:31.046Z,15
2017-06-28T09:59:11.501Z,15